Time;durP1;ratioP1;P1;durP2;ratioP2;P2;SDS_P1;SDS_P2;PMS_P1;PMS_P2;Temp;Humidity;BMP_temperature;BMP_pressure;BME280_temperature;BME280_humidity;BME280_pressure;Samples;Min_cycle;Max_cycle;Signal;HPM_P1;HPM_P2
2021/01/26 00:00:11;;;;;;;36.55;18.60;;;-0.90;99.90;;;;;;4931614;29;20071;-72
2021/01/26 00:02:38;;;;;;;36.63;19.17;;;-0.90;99.90;;;;;;4932359;29;20146;-72
2021/01/26 00:05:05;;;;;;;35.28;18.77;;;-0.80;99.90;;;;;;4925672;29;20131;-72
2021/01/26 00:07:32;;;;;;;35.22;16.15;;;-0.80;99.90;;;;;;4932142;29;20395;-73
2021/01/26 00:10:00;;;;;;;34.63;17.38;;;-0.90;99.90;;;;;;4931903;29;20533;-72
2021/01/26 00:12:27;;;;;;;36.65;19.17;;;-0.80;99.90;;;;;;4932818;29;20048;-72
2021/01/26 00:14:53;;;;;;;38.72;18.33;;;-0.80;99.90;;;;;;4932036;29;20071;-72
2021/01/26 00:17:20;;;;;;;30.10;16.33;;;-0.80;99.90;;;;;;4931185;29;20555;-71
2021/01/26 00:19:47;;;;;;;35.83;17.40;;;-0.90;99.90;;;;;;4933992;29;20047;-71
2021/01/26 00:22:13;;;;;;;43.53;19.60;;;-1.00;99.90;;;;;;4937613;29;20130;-72
2021/01/26 00:24:39;;;;;;;37.92;18.65;;;-0.90;99.90;;;;;;4929554;29;20060;-71
2021/01/26 00:27:06;;;;;;;36.80;18.50;;;-0.90;99.90;;;;;;4932778;28;20059;-71
2021/01/26 00:29:33;;;;;;;32.17;16.25;;;-0.90;99.90;;;;;;4937317;29;20052;-71
2021/01/26 00:31:59;;;;;;;36.42;18.52;;;-0.90;99.90;;;;;;4932427;29;20095;-72
2021/01/26 00:34:26;;;;;;;39.72;19.40;;;-1.00;99.90;;;;;;4939436;29;20047;-72
2021/01/26 00:36:52;;;;;;;32.60;17.38;;;-0.90;99.90;;;;;;4931819;29;20170;-72
2021/01/26 00:39:18;;;;;;;40.65;20.23;;;-0.90;99.90;;;;;;4951853;28;20142;-71
2021/01/26 00:41:45;;;;;;;36.53;17.60;;;-0.90;99.90;;;;;;4932701;29;20142;-71
2021/01/26 00:44:11;;;;;;;28.05;13.20;;;-0.90;99.90;;;;;;4939640;29;20089;-71
2021/01/26 00:46:38;;;;;;;28.92;14.05;;;-0.90;99.90;;;;;;4931986;29;20054;-71
2021/01/26 00:49:04;;;;;;;37.00;19.23;;;-0.90;99.90;;;;;;4936627;29;20561;-72
2021/01/26 00:51:30;;;;;;;32.28;15.70;;;-0.90;99.90;;;;;;4928177;29;20072;-72
2021/01/26 00:53:57;;;;;;;41.97;21.10;;;-0.90;99.90;;;;;;4941834;29;20466;-71
2021/01/26 00:56:23;;;;;;;46.08;21.70;;;-0.90;99.90;;;;;;4939654;29;20051;-72
2021/01/26 00:58:49;;;;;;;46.47;18.80;;;-0.80;99.90;;;;;;4936064;28;20534;-71
2021/01/26 01:01:16;;;;;;;43.65;20.27;;;-0.80;99.90;;;;;;4953247;28;20530;-72
2021/01/26 01:03:43;;;;;;;51.22;22.80;;;-0.80;99.90;;;;;;4933074;29;20057;-72
2021/01/26 01:06:09;;;;;;;44.28;21.05;;;-0.80;99.90;;;;;;4931865;29;20139;-73
2021/01/26 01:08:35;;;;;;;43.20;20.10;;;-0.80;99.90;;;;;;4933430;29;20150;-72
2021/01/26 01:11:02;;;;;;;41.67;19.55;;;-0.80;99.90;;;;;;4945413;28;20103;-72
2021/01/26 01:13:28;;;;;;;39.92;19.17;;;-0.70;99.90;;;;;;4936881;29;20134;-72
2021/01/26 01:15:54;;;;;;;44.05;20.65;;;-0.70;99.90;;;;;;4933464;28;20110;-71
2021/01/26 01:18:21;;;;;;;40.00;20.60;;;-0.70;99.90;;;;;;4930918;29;20110;-71
2021/01/26 01:20:47;;;;;;;39.40;17.75;;;-0.70;99.90;;;;;;4932034;29;20158;-72
2021/01/26 01:23:14;;;;;;;46.10;21.85;;;-0.60;99.90;;;;;;4931505;29;20071;-71
2021/01/26 01:25:40;;;;;;;49.25;22.02;;;-0.60;99.90;;;;;;4931436;29;20059;-71
2021/01/26 01:28:06;;;;;;;44.08;20.02;;;-0.50;99.90;;;;;;4931623;29;20130;-72
2021/01/26 01:30:34;;;;;;;45.70;22.13;;;-0.50;99.90;;;;;;4931636;29;20135;-72
2021/01/26 01:33:04;;;;;;;44.15;22.08;;;-0.50;99.90;;;;;;4935313;29;20516;-72
2021/01/26 01:35:31;;;;;;;41.53;21.20;;;-0.40;99.90;;;;;;4931999;29;20513;-72
2021/01/26 01:37:57;;;;;;;35.63;17.75;;;-0.40;99.90;;;;;;4933009;29;20540;-71
2021/01/26 01:40:26;;;;;;;41.47;19.50;;;-0.40;99.90;;;;;;4945087;28;20134;-71
2021/01/26 01:42:53;;;;;;;39.45;17.63;;;-0.40;99.90;;;;;;4934259;28;20063;-71
2021/01/26 01:45:22;;;;;;;38.00;19.80;;;-0.40;99.90;;;;;;4927295;29;20107;-71
2021/01/26 01:47:54;;;;;;;42.25;19.27;;;-0.30;99.90;;;;;;4927641;29;20507;-71
2021/01/26 01:50:46;;;;;;;33.72;14.65;;;-0.30;99.90;;;;;;4949343;28;20047;-72
2021/01/26 01:53:29;;;;;;;34.50;15.10;;;-0.10;99.90;;;;;;4935326;28;20048;-72
2021/01/26 01:56:24;;;;;;;34.47;17.00;;;-0.20;99.90;;;;;;4931817;29;20471;-72
2021/01/26 01:58:57;;;;;;;36.67;17.63;;;-0.30;99.90;;;;;;4928719;29;20143;-72
2021/01/26 02:01:27;;;;;;;30.27;14.80;;;-0.20;99.90;;;;;;4929720;29;20066;-71
2021/01/26 02:04:01;;;;;;;37.97;14.80;;;-0.30;99.90;;;;;;4931066;29;20071;-72
2021/01/26 02:06:33;;;;;;;40.90;19.17;;;-0.30;99.90;;;;;;4931601;29;20418;-72
2021/01/26 02:09:02;;;;;;;34.90;16.08;;;-0.20;99.90;;;;;;4931192;29;20178;-72
2021/01/26 02:11:29;;;;;;;41.53;19.77;;;-0.30;99.90;;;;;;4931570;29;20090;-72
2021/01/26 02:13:55;;;;;;;40.08;17.80;;;-0.30;99.90;;;;;;4928834;29;20044;-72
2021/01/26 02:16:46;;;;;;;39.28;18.38;;;-0.20;99.90;;;;;;4936934;29;20471;-72
2021/01/26 02:19:44;;;;;;;44.90;16.60;;;-0.20;99.90;;;;;;4935275;28;20086;-71
2021/01/26 02:22:16;;;;;;;36.03;15.68;;;-0.20;99.90;;;;;;4930610;29;20090;-71
2021/01/26 02:25:29;;;;;;;39.47;15.82;;;-0.10;99.90;;;;;;4932057;29;20122;-72
2021/01/26 02:28:11;;;;;;;30.25;13.52;;;-0.10;99.90;;;;;;4926693;29;20515;-71
2021/01/26 02:31:09;;;;;;;31.95;15.05;;;-0.10;99.90;;;;;;4931779;29;20499;-72
2021/01/26 02:33:39;;;;;;;38.97;18.60;;;-0.10;99.90;;;;;;4929324;29;20051;-72
2021/01/26 02:36:24;;;;;;;31.00;14.93;;;-0.10;99.90;;;;;;4930996;29;20099;-72
2021/01/26 02:38:59;;;;;;;44.90;17.85;;;-0.10;99.90;;;;;;4929983;29;20534;-71
2021/01/26 02:41:33;;;;;;;32.00;14.73;;;-0.10;99.90;;;;;;4921597;29;20111;-71
2021/01/26 02:44:09;;;;;;;30.95;14.50;;;-0.10;99.90;;;;;;4930050;29;20435;-71
2021/01/26 02:46:46;;;;;;;35.60;17.83;;;0.00;99.90;;;;;;4928481;29;20138;-71
2021/01/26 02:49:33;;;;;;;35.03;17.00;;;0.00;99.90;;;;;;4933837;29;20383;-71
2021/01/26 02:52:05;;;;;;;34.40;16.23;;;0.00;99.90;;;;;;4930589;29;20218;-71
2021/01/26 02:54:43;;;;;;;40.38;17.80;;;0.00;99.90;;;;;;4938223;29;20446;-72
2021/01/26 02:57:20;;;;;;;35.03;16.27;;;0.20;99.90;;;;;;4930981;29;20075;-71
2021/01/26 03:00:04;;;;;;;33.25;16.40;;;0.20;99.90;;;;;;4929579;29;20083;-71
2021/01/26 03:02:38;;;;;;;30.15;15.23;;;0.10;99.90;;;;;;4932989;29;20132;-72
2021/01/26 03:05:10;;;;;;;33.78;16.10;;;0.10;99.90;;;;;;4935065;29;21142;-71
2021/01/26 03:07:42;;;;;;;34.63;17.00;;;0.10;99.90;;;;;;4936184;29;20135;-71
2021/01/26 03:10:17;;;;;;;29.55;13.80;;;0.10;99.90;;;;;;4939102;29;20079;-72
2021/01/26 03:12:56;;;;;;;32.55;14.68;;;0.00;99.90;;;;;;4935590;28;20502;-71
2021/01/26 03:15:53;;;;;;;30.95;14.02;;;0.00;99.90;;;;;;4933694;29;20127;-71
2021/01/26 03:18:24;;;;;;;31.80;13.82;;;0.10;99.90;;;;;;4932446;29;20054;-71
2021/01/26 03:20:57;;;;;;;32.80;14.60;;;0.00;99.90;;;;;;4933636;29;20531;-72
2021/01/26 03:23:34;;;;;;;29.17;12.55;;;0.00;99.90;;;;;;4936569;29;20149;-71
2021/01/26 03:26:03;;;;;;;32.67;13.77;;;0.00;99.90;;;;;;4934676;29;20088;-71
2021/01/26 03:28:30;;;;;;;31.60;13.93;;;0.00;99.90;;;;;;4933199;29;20114;-71
2021/01/26 03:30:59;;;;;;;30.50;11.80;;;0.10;99.90;;;;;;4931966;29;20115;-72
2021/01/26 03:33:39;;;;;;;28.80;14.35;;;0.20;99.90;;;;;;4935238;29;20111;-72
2021/01/26 03:36:06;;;;;;;26.85;10.63;;;0.20;99.90;;;;;;4934454;29;20044;-72
2021/01/26 03:38:34;;;;;;;30.60;13.70;;;0.10;99.90;;;;;;4933869;29;20176;-71
2021/01/26 03:41:03;;;;;;;31.13;13.77;;;0.10;99.90;;;;;;4932620;29;20082;-72
2021/01/26 03:43:30;;;;;;;29.65;13.43;;;0.20;99.90;;;;;;4931359;29;20139;-71
2021/01/26 03:46:23;;;;;;;33.08;13.18;;;0.20;99.90;;;;;;4933059;29;20490;-71
2021/01/26 03:49:11;;;;;;;28.75;12.65;;;0.20;99.90;;;;;;4927265;29;20131;-72
2021/01/26 03:52:15;;;;;;;27.20;11.77;;;0.20;99.90;;;;;;4928949;29;20059;-71
2021/01/26 03:55:17;;;;;;;22.60;8.90;;;0.20;99.90;;;;;;4930934;29;20072;-71
2021/01/26 03:57:59;;;;;;;19.33;9.10;;;0.20;99.90;;;;;;4929943;29;20043;-72
2021/01/26 04:00:38;;;;;;;21.58;9.35;;;0.20;99.90;;;;;;4927904;29;20122;-71
2021/01/26 04:03:24;;;;;;;21.83;7.90;;;0.30;99.90;;;;;;4933040;29;20405;-71
2021/01/26 04:05:59;;;;;;;24.27;8.80;;;0.30;99.90;;;;;;4924069;29;20111;-71
2021/01/26 04:08:42;;;;;;;20.23;7.05;;;0.20;99.90;;;;;;4928686;29;20058;-71
2021/01/26 04:11:26;;;;;;;19.52;8.93;;;0.20;99.90;;;;;;4930736;29;20139;-71
2021/01/26 04:14:08;;;;;;;22.20;10.13;;;0.30;99.90;;;;;;4935616;29;20082;-71
2021/01/26 04:16:43;;;;;;;21.50;8.15;;;0.30;99.90;;;;;;4932191;29;20198;-71
2021/01/26 04:19:15;;;;;;;23.33;9.77;;;0.30;99.90;;;;;;4932912;29;20447;-71
2021/01/26 04:21:41;;;;;;;23.23;9.35;;;0.40;99.90;;;;;;4932479;29;20054;-72
2021/01/26 04:24:08;;;;;;;26.70;10.45;;;0.40;99.90;;;;;;4934873;29;20075;-71
2021/01/26 04:26:35;;;;;;;18.42;7.88;;;0.40;99.90;;;;;;4933490;29;20052;-71
2021/01/26 04:29:02;;;;;;;22.35;9.23;;;0.40;99.90;;;;;;4937004;28;20130;-71
2021/01/26 04:31:29;;;;;;;16.85;8.50;;;0.40;99.90;;;;;;4933398;29;20052;-71
2021/01/26 04:33:56;;;;;;;22.88;9.15;;;0.40;99.90;;;;;;4932405;28;20131;-73
2021/01/26 04:36:25;;;;;;;26.08;8.27;;;0.40;99.90;;;;;;4914550;29;20126;-72
2021/01/26 04:38:52;;;;;;;18.67;8.32;;;0.50;99.90;;;;;;4925732;29;20083;-71
2021/01/26 04:41:30;;;;;;;19.77;7.88;;;0.50;99.90;;;;;;4933173;28;20206;-71
2021/01/26 04:44:21;;;;;;;20.02;7.07;;;0.50;99.90;;;;;;4931231;29;20139;-72
2021/01/26 04:47:10;;;;;;;22.45;8.48;;;0.60;99.90;;;;;;4924101;29;20090;-71
2021/01/26 04:49:46;;;;;;;20.02;8.48;;;0.60;99.90;;;;;;4931645;29;20063;-71
2021/01/26 04:52:31;;;;;;;19.48;8.18;;;0.60;99.90;;;;;;4930866;29;20059;-72
2021/01/26 04:55:34;;;;;;;16.05;6.97;;;0.60;99.90;;;;;;4936832;29;20083;-71
2021/01/26 04:58:16;;;;;;;16.98;8.25;;;0.60;99.90;;;;;;4940940;28;20126;-71
2021/01/26 05:01:04;;;;;;;14.40;7.15;;;0.60;99.90;;;;;;4931249;29;20478;-72
2021/01/26 05:03:50;;;;;;;15.23;7.82;;;0.70;99.90;;;;;;4930499;29;20071;-71
2021/01/26 05:06:18;;;;;;;11.18;4.25;;;0.70;99.90;;;;;;4925837;29;20067;-71
2021/01/26 05:08:50;;;;;;;19.38;7.07;;;0.80;99.90;;;;;;4930258;29;20114;-71
2021/01/26 05:11:25;;;;;;;17.58;7.03;;;0.70;99.90;;;;;;4929119;29;20517;-71
2021/01/26 05:13:59;;;;;;;19.25;6.70;;;0.70;99.90;;;;;;4937194;29;20126;-71
2021/01/26 05:16:32;;;;;;;;;;;0.70;99.90;;;;;;4930506;29;20182;-72
2021/01/26 05:19:04;;;;;;;16.00;7.95;;;0.70;99.90;;;;;;4928957;28;20001;-71
2021/01/26 05:21:38;;;;;;;15.77;7.15;;;0.70;99.90;;;;;;4930804;29;20143;-72
2021/01/26 05:24:31;;;;;;;15.15;7.43;;;0.70;99.90;;;;;;4927882;29;20099;-71
2021/01/26 05:27:00;;;;;;;16.27;6.90;;;0.70;99.90;;;;;;4929324;29;20422;-72
2021/01/26 05:29:26;;;;;;;13.77;5.97;;;0.90;99.90;;;;;;4928866;29;20551;-71
2021/01/26 05:31:58;;;;;;;22.05;7.95;;;0.80;99.90;;;;;;4946276;29;20070;-71
2021/01/26 05:34:26;;;;;;;19.08;7.53;;;0.80;99.90;;;;;;4935467;28;20047;-72
2021/01/26 05:36:52;;;;;;;17.00;6.95;;;0.80;99.90;;;;;;4930325;29;20123;-72
2021/01/26 05:39:44;;;;;;;16.40;7.40;;;0.80;99.90;;;;;;4947144;28;20052;-72
2021/01/26 05:42:14;;;;;;;18.48;6.30;;;0.80;99.90;;;;;;4928022;29;20130;-72
2021/01/26 05:44:50;;;;;;;15.50;6.55;;;0.80;99.90;;;;;;4943535;29;20471;-71
2021/01/26 05:47:24;;;;;;;17.30;6.57;;;0.90;99.90;;;;;;4929199;29;20056;-71
2021/01/26 05:49:52;;;;;;;15.02;6.47;;;0.90;99.90;;;;;;4944510;29;20562;-71
2021/01/26 05:52:20;;;;;;;13.27;6.43;;;0.90;99.90;;;;;;4938085;29;20150;-71
2021/01/26 05:54:53;;;;;;;17.85;7.28;;;0.90;99.90;;;;;;4935361;29;20127;-72
2021/01/26 05:57:32;;;;;;;18.55;6.57;;;0.90;99.90;;;;;;4929985;29;20142;-71
2021/01/26 06:00:23;;;;;;;14.63;4.68;;;0.90;99.90;;;;;;4931394;29;20078;-72
2021/01/26 06:03:05;;;;;;;12.57;5.53;;;0.90;99.90;;;;;;4931538;29;20050;-72
2021/01/26 06:05:31;;;;;;;14.50;5.82;;;0.90;99.90;;;;;;4932949;29;21523;-72
2021/01/26 06:08:24;;;;;;;18.63;6.40;;;0.90;99.90;;;;;;4929832;29;20083;-72
2021/01/26 06:10:50;;;;;;;14.02;6.38;;;0.90;99.90;;;;;;4928732;29;20055;-72
2021/01/26 06:13:26;;;;;;;13.63;5.00;;;0.90;99.90;;;;;;4932697;29;20447;-72
2021/01/26 06:16:07;;;;;;;17.00;5.65;;;0.90;99.90;;;;;;4915529;29;20155;-71
2021/01/26 06:18:34;;;;;;;17.52;6.65;;;0.90;99.90;;;;;;4933582;29;20169;-72
2021/01/26 06:21:04;;;;;;;16.27;5.65;;;0.90;99.90;;;;;;4943103;29;20471;-71
2021/01/26 06:23:32;;;;;;;16.42;5.82;;;0.90;99.90;;;;;;4931494;29;20051;-72
2021/01/26 06:26:09;;;;;;;9.95;4.63;;;0.90;99.90;;;;;;4931121;29;20594;-71
2021/01/26 06:29:07;;;;;;;11.73;5.43;;;0.90;99.90;;;;;;4934423;28;20519;-72
2021/01/26 06:31:57;;;;;;;13.35;5.70;;;1.00;99.90;;;;;;4931126;29;20131;-72
2021/01/26 06:34:59;;;;;;;15.50;6.07;;;1.00;99.90;;;;;;4936899;29;20047;-72
2021/01/26 06:37:49;;;;;;;16.17;5.47;;;0.90;99.90;;;;;;4930567;29;20082;-72
2021/01/26 06:40:15;;;;;;;19.85;4.55;;;0.90;99.90;;;;;;4933968;29;20048;-71
2021/01/26 06:42:54;;;;;;;23.25;6.70;;;0.90;99.90;;;;;;4933022;29;20086;-71
2021/01/26 06:45:39;;;;;;;16.15;6.13;;;1.00;99.90;;;;;;4933497;29;20138;-71
2021/01/26 06:48:29;;;;;;;7.55;3.47;;;0.90;99.90;;;;;;4933835;29;20487;-69
2021/01/26 06:51:22;;;;;;;8.80;4.15;;;0.90;99.90;;;;;;4949068;29;20047;-71
2021/01/26 06:54:30;;;;;;;9.60;4.67;;;0.90;99.90;;;;;;4922208;29;20044;-71
2021/01/26 06:57:13;;;;;;;7.93;3.47;;;0.90;99.90;;;;;;4915264;29;20507;-70
2021/01/26 06:59:57;;;;;;;;;;;0.90;99.90;;;;;;4933589;29;20214;-70
2021/01/26 07:02:51;;;;;;;15.10;4.57;;;0.90;99.90;;;;;;4941025;29;19977;-71
2021/01/26 07:05:27;;;;;;;15.68;5.05;;;0.80;99.90;;;;;;4951307;28;20054;-71
2021/01/26 07:08:31;;;;;;;14.68;4.80;;;0.90;99.90;;;;;;4933405;29;20103;-72
2021/01/26 07:11:22;;;;;;;6.85;2.70;;;0.80;99.90;;;;;;4934354;29;20493;-71
2021/01/26 07:14:30;;;;;;;13.30;4.13;;;0.70;99.90;;;;;;4922014;29;20187;-71
2021/01/26 07:17:06;;;;;;;10.45;4.28;;;0.70;99.90;;;;;;4948632;28;20138;-71
2021/01/26 07:19:51;;;;;;;11.63;3.05;;;0.70;99.90;;;;;;4954565;28;20347;-71
2021/01/26 07:22:37;;;;;;;8.57;3.85;;;0.80;99.90;;;;;;4933276;29;20110;-71
2021/01/26 07:25:28;;;;;;;11.77;4.72;;;0.80;99.90;;;;;;4933649;29;20134;-72
2021/01/26 07:27:58;;;;;;;18.55;4.70;;;0.70;99.90;;;;;;4950818;28;20126;-72
2021/01/26 07:30:31;;;;;;;12.55;4.15;;;0.80;99.90;;;;;;4952458;28;20423;-71
2021/01/26 07:33:04;;;;;;;12.55;4.07;;;0.80;99.90;;;;;;4938187;29;20059;-71
2021/01/26 07:35:51;;;;;;;11.70;4.05;;;0.80;99.90;;;;;;4948064;28;20201;-72
2021/01/26 07:38:25;;;;;;;10.40;3.67;;;0.80;99.90;;;;;;4934887;29;20134;-71
2021/01/26 07:41:06;;;;;;;8.05;2.72;;;0.80;99.90;;;;;;4944900;28;20127;-71
2021/01/26 07:43:59;;;;;;;11.98;3.95;;;0.80;99.90;;;;;;4922371;29;20126;-70
2021/01/26 07:46:37;;;;;;;10.48;3.75;;;0.90;99.90;;;;;;4927711;29;20329;-70
2021/01/26 07:49:28;;;;;;;14.35;5.00;;;0.80;99.90;;;;;;4933755;29;20067;-70
2021/01/26 07:51:58;;;;;;;14.80;4.22;;;0.80;99.90;;;;;;4935862;29;20040;-69
2021/01/26 07:54:35;;;;;;;15.20;3.88;;;0.80;99.90;;;;;;4939769;29;20052;-69
2021/01/26 07:57:04;;;;;;;9.07;2.95;;;0.80;99.90;;;;;;4941964;28;20051;-69
2021/01/26 07:59:40;;;;;;;11.27;4.13;;;0.70;99.90;;;;;;4938710;28;20048;-69
2021/01/26 08:02:17;;;;;;;15.85;3.92;;;0.70;99.90;;;;;;4947558;29;20087;-70
2021/01/26 08:04:45;;;;;;;11.98;5.13;;;0.80;99.90;;;;;;4936501;28;20447;-70
2021/01/26 08:07:26;;;;;;;12.00;3.55;;;0.80;99.90;;;;;;4943986;28;20051;-71
2021/01/26 08:09:54;;;;;;;9.02;4.03;;;0.80;99.90;;;;;;4939960;28;20498;-70
2021/01/26 08:12:39;;;;;;;12.75;4.50;;;0.90;99.90;;;;;;4951878;28;20146;-70
2021/01/26 08:15:33;;;;;;;15.23;4.68;;;0.90;99.90;;;;;;4934610;29;20489;-71
2021/01/26 08:18:31;;;;;;;9.25;4.20;;;0.80;99.90;;;;;;4940876;28;20062;-70
2021/01/26 08:20:58;;;;;;;8.80;3.90;;;0.80;99.90;;;;;;4939245;28;20047;-70
2021/01/26 08:23:30;;;;;;;13.93;4.15;;;0.80;99.90;;;;;;4943502;29;20081;-69
2021/01/26 08:26:15;;;;;;;17.38;3.95;;;0.70;99.90;;;;;;4932080;29;20464;-70
2021/01/26 08:28:47;;;;;;;11.02;3.88;;;0.80;99.90;;;;;;4940182;28;20084;-70
2021/01/26 08:31:39;;;;;;;20.15;4.57;;;0.90;99.90;;;;;;4933631;29;20091;-70
2021/01/26 08:34:21;;;;;;;14.13;3.70;;;1.00;99.90;;;;;;4944344;28;20043;-69
2021/01/26 08:37:07;;;;;;;12.23;3.97;;;1.00;99.90;;;;;;4938478;28;20090;-70
2021/01/26 08:39:48;;;;;;;11.55;4.07;;;1.00;99.90;;;;;;4939866;29;20086;-70
2021/01/26 08:42:43;;;;;;;11.68;3.42;;;1.10;99.90;;;;;;4952581;28;20051;-71
2021/01/26 08:45:17;;;;;;;10.77;3.42;;;1.10;99.90;;;;;;4931806;29;20235;-70
2021/01/26 08:47:46;;;;;;;15.10;4.07;;;1.10;99.90;;;;;;4926764;29;20052;-70
2021/01/26 08:50:21;;;;;;;10.30;3.63;;;1.10;99.90;;;;;;4926958;29;20118;-70
2021/01/26 08:52:47;;;;;;;11.52;3.42;;;1.00;99.90;;;;;;4929813;29;20183;-70
2021/01/26 08:55:36;;;;;;;11.10;4.25;;;1.00;99.90;;;;;;4931229;29;20130;-70
2021/01/26 08:58:02;;;;;;;14.50;3.28;;;1.10;99.90;;;;;;4925673;29;20526;-70
2021/01/26 09:01:02;;;;;;;13.93;4.28;;;1.10;99.90;;;;;;4929574;29;20052;-70
2021/01/26 09:03:41;;;;;;;13.88;4.05;;;1.00;99.90;;;;;;4940706;29;20130;-70
2021/01/26 09:06:12;;;;;;;8.73;3.10;;;1.10;99.90;;;;;;4928577;29;20083;-70
2021/01/26 09:08:42;;;;;;;9.88;3.70;;;1.10;99.90;;;;;;4943598;28;20043;-69
2021/01/26 09:11:14;;;;;;;10.85;3.60;;;1.20;99.90;;;;;;4923428;29;20106;-71
2021/01/26 09:13:41;;;;;;;11.07;3.78;;;1.00;99.90;;;;;;4931768;29;20048;-70
2021/01/26 09:16:28;;;;;;;10.00;3.33;;;1.10;99.90;;;;;;4932096;29;20553;-70
2021/01/26 09:19:11;;;;;;;6.97;2.08;;;1.20;99.90;;;;;;4929790;29;20043;-71
2021/01/26 09:21:38;;;;;;;17.30;4.05;;;1.10;99.90;;;;;;4931459;29;20055;-71
2021/01/26 09:24:06;;;;;;;13.52;3.83;;;1.20;99.90;;;;;;4932908;29;20099;-71
2021/01/26 09:26:32;;;;;;;11.38;3.78;;;1.40;99.90;;;;;;4931901;29;20051;-71
2021/01/26 09:28:59;;;;;;;8.30;3.17;;;1.50;99.90;;;;;;4931778;29;20126;-70
2021/01/26 09:31:28;;;;;;;10.23;4.05;;;1.60;99.90;;;;;;4931760;29;20052;-70
2021/01/26 09:34:07;;;;;;;13.23;2.95;;;1.70;99.90;;;;;;4931841;29;20498;-70
2021/01/26 09:36:34;;;;;;;12.52;3.20;;;1.70;99.90;;;;;;4932240;29;20082;-70
2021/01/26 09:39:06;;;;;;;8.65;2.72;;;1.70;99.90;;;;;;4932264;29;20063;-70
2021/01/26 09:41:34;;;;;;;7.32;3.20;;;1.70;99.90;;;;;;4932653;29;20054;-71
2021/01/26 09:44:19;;;;;;;11.18;2.40;;;1.70;99.90;;;;;;4942530;29;20558;-70
2021/01/26 09:46:59;;;;;;;5.75;2.00;;;1.70;99.90;;;;;;4928957;29;20127;-70
2021/01/26 09:49:28;;;;;;;11.50;2.67;;;1.70;99.90;;;;;;4932242;29;20142;-70
2021/01/26 09:52:05;;;;;;;8.88;2.72;;;1.80;99.90;;;;;;4932061;29;20051;-72
2021/01/26 09:54:34;;;;;;;9.32;2.65;;;1.70;99.90;;;;;;4930534;29;20048;-71
2021/01/26 09:57:03;;;;;;;9.48;2.45;;;1.90;99.90;;;;;;4925011;29;20126;-70
2021/01/26 09:59:32;;;;;;;8.15;2.60;;;1.90;99.90;;;;;;4927067;29;20146;-71
2021/01/26 10:02:01;;;;;;;7.55;2.80;;;1.90;99.90;;;;;;4930276;29;20088;-70
2021/01/26 10:04:33;;;;;;;5.75;2.10;;;1.80;99.90;;;;;;4917638;29;20056;-70
2021/01/26 10:07:19;;;;;;;9.40;2.38;;;1.60;99.90;;;;;;4927139;29;20063;-70
2021/01/26 10:09:46;;;;;;;9.02;2.67;;;1.70;99.90;;;;;;4923159;29;20047;-70
2021/01/26 10:12:33;;;;;;;10.75;3.03;;;1.50;99.90;;;;;;4933841;29;20059;-70
2021/01/26 10:15:23;;;;;;;9.70;3.75;;;1.60;99.90;;;;;;4935868;29;20135;-70
2021/01/26 10:18:02;;;;;;;10.63;3.75;;;1.50;99.90;;;;;;4932342;29;20136;-70
2021/01/26 10:20:47;;;;;;;13.30;3.83;;;1.60;99.90;;;;;;4934930;29;20079;-70
2021/01/26 10:23:26;;;;;;;15.77;3.78;;;1.70;99.90;;;;;;4935246;29;20571;-70
2021/01/26 10:26:14;;;;;;;8.75;3.47;;;1.90;99.90;;;;;;4934054;29;20048;-69
2021/01/26 10:29:13;;;;;;;10.13;3.55;;;2.00;99.90;;;;;;4916720;29;20056;-70
2021/01/26 10:31:54;;;;;;;8.02;2.78;;;2.00;99.90;;;;;;4933214;29;20079;-70
2021/01/26 10:34:31;;;;;;;11.73;3.55;;;2.10;99.90;;;;;;4927043;29;20490;-70
2021/01/26 10:37:09;;;;;;;13.82;3.55;;;2.10;99.90;;;;;;4935521;29;20516;-70
2021/01/26 10:39:36;;;;;;;7.65;3.35;;;2.00;99.90;;;;;;4935173;29;20075;-70
2021/01/26 10:42:14;;;;;;;12.35;3.10;;;2.00;99.90;;;;;;4935311;29;20059;-70
2021/01/26 10:44:52;;;;;;;9.93;2.95;;;2.00;99.90;;;;;;4935493;29;20051;-70
2021/01/26 10:47:29;;;;;;;11.40;3.70;;;1.90;99.90;;;;;;4935018;29;20052;-70
2021/01/26 10:49:59;;;;;;;11.15;3.30;;;1.90;99.90;;;;;;4933583;29;20048;-71
2021/01/26 10:52:48;;;;;;;5.43;2.70;;;1.90;99.90;;;;;;4935336;29;20107;-70
2021/01/26 10:55:18;;;;;;;16.38;3.45;;;1.90;99.90;;;;;;4934592;29;20107;-69
2021/01/26 10:57:46;;;;;;;9.43;3.22;;;2.10;99.90;;;;;;4934099;29;20110;-70
2021/01/26 11:00:22;;;;;;;8.90;3.00;;;2.10;99.90;;;;;;4934626;29;20075;-71
2021/01/26 11:02:53;;;;;;;7.95;3.03;;;2.20;99.90;;;;;;4928235;29;20577;-70
2021/01/26 11:05:22;;;;;;;14.65;3.50;;;2.30;99.90;;;;;;4932771;29;20379;-71
2021/01/26 11:07:49;;;;;;;11.55;4.00;;;2.20;99.90;;;;;;4924319;29;20138;-70
2021/01/26 11:10:17;;;;;;;11.35;3.53;;;2.20;99.90;;;;;;4934392;29;20106;-70
2021/01/26 11:12:43;;;;;;;12.10;3.78;;;2.20;99.90;;;;;;4930085;29;20039;-71
2021/01/26 11:15:14;;;;;;;13.18;4.00;;;2.30;99.90;;;;;;4933931;29;20139;-71
2021/01/26 11:17:41;;;;;;;8.32;3.17;;;2.40;99.90;;;;;;4925157;29;20474;-71
2021/01/26 11:20:09;;;;;;;12.18;3.42;;;2.30;99.90;;;;;;4943613;29;20172;-71
2021/01/26 11:22:37;;;;;;;8.52;2.90;;;2.30;99.90;;;;;;4928812;29;20186;-71
2021/01/26 11:25:06;;;;;;;14.73;4.00;;;2.30;99.90;;;;;;4933350;29;20055;-72
2021/01/26 11:27:32;;;;;;;10.30;3.22;;;2.50;99.90;;;;;;4928451;29;20135;-72
2021/01/26 11:29:59;;;;;;;11.55;4.47;;;2.70;99.90;;;;;;4934298;29;20056;-72
2021/01/26 11:32:26;;;;;;;10.07;3.20;;;2.70;99.90;;;;;;4933797;29;20475;-71
2021/01/26 11:34:53;;;;;;;8.50;3.53;;;2.60;99.90;;;;;;4934055;29;20055;-71
2021/01/26 11:37:20;;;;;;;12.00;4.00;;;2.50;99.90;;;;;;4931769;29;20075;-71
2021/01/26 11:39:46;;;;;;;10.90;5.10;;;2.50;99.90;;;;;;4925616;29;20114;-70
2021/01/26 11:42:13;;;;;;;9.43;3.28;;;2.70;99.90;;;;;;4915819;29;20118;-71
2021/01/26 11:44:43;;;;;;;9.68;3.00;;;2.70;99.90;;;;;;4947145;29;20493;-70
2021/01/26 11:47:09;;;;;;;13.20;3.53;;;2.60;99.90;;;;;;4931544;29;20590;-70
2021/01/26 11:49:36;;;;;;;7.22;2.92;;;2.40;99.90;;;;;;4918459;29;20071;-71
2021/01/26 11:52:02;;;;;;;11.90;4.30;;;2.50;99.90;;;;;;4932566;28;20514;-71
2021/01/26 11:54:29;;;;;;;14.00;3.70;;;2.60;99.90;;;;;;4928789;29;20126;-71
2021/01/26 11:56:56;;;;;;;11.43;4.15;;;2.70;99.90;;;;;;4926402;29;20052;-71
2021/01/26 11:59:22;;;;;;;11.73;3.13;;;2.80;99.90;;;;;;4932753;29;20076;-70
2021/01/26 12:01:52;;;;;;;10.82;2.92;;;2.90;99.90;;;;;;4933267;29;20048;-72
2021/01/26 12:04:20;;;;;;;17.77;4.28;;;2.60;99.90;;;;;;4932665;29;20551;-71
2021/01/26 12:06:47;;;;;;;12.48;3.83;;;2.60;99.90;;;;;;4931145;29;20044;-72
2021/01/26 12:09:14;;;;;;;11.63;4.28;;;2.40;99.90;;;;;;4928325;29;20131;-72
2021/01/26 12:11:42;;;;;;;12.70;4.30;;;2.50;99.90;;;;;;4920026;29;20048;-72
2021/01/26 12:14:08;;;;;;;8.18;3.22;;;2.60;99.90;;;;;;4931772;29;20055;-72
2021/01/26 12:16:35;;;;;;;10.40;3.92;;;2.70;99.90;;;;;;4931708;29;20142;-71
2021/01/26 12:19:02;;;;;;;10.73;3.70;;;2.80;99.90;;;;;;4933009;29;20062;-71
2021/01/26 12:21:28;;;;;;;9.68;3.35;;;2.70;99.90;;;;;;4932488;29;20051;-71
2021/01/26 12:23:54;;;;;;;12.48;4.28;;;2.80;99.90;;;;;;4932103;29;20079;-70
2021/01/26 12:26:21;;;;;;;7.95;3.40;;;3.10;99.90;;;;;;4928339;29;20139;-71
2021/01/26 12:28:47;;;;;;;7.30;3.75;;;3.00;99.90;;;;;;4920632;29;20079;-71
2021/01/26 12:31:14;;;;;;;11.25;3.90;;;3.00;99.90;;;;;;4926605;29;20079;-72
2021/01/26 12:33:41;;;;;;;12.93;4.88;;;3.10;99.90;;;;;;4932160;29;20182;-72
2021/01/26 12:36:07;;;;;;;11.40;4.65;;;3.10;99.90;;;;;;4923302;29;20059;-72
2021/01/26 12:38:33;;;;;;;8.45;3.58;;;2.90;99.90;;;;;;4929857;29;20071;-71
2021/01/26 12:41:00;;;;;;;13.75;4.10;;;2.70;99.90;;;;;;4932514;29;20135;-73
2021/01/26 12:43:26;;;;;;;11.57;4.25;;;2.90;99.90;;;;;;4932232;29;20230;-71
2021/01/26 12:45:53;;;;;;;8.60;3.40;;;2.90;99.90;;;;;;4931102;29;20058;-72
2021/01/26 12:48:19;;;;;;;13.90;4.55;;;3.00;99.90;;;;;;4926225;29;20074;-72
2021/01/26 12:50:47;;;;;;;11.93;4.68;;;3.00;99.90;;;;;;4926149;29;20147;-72
2021/01/26 12:53:14;;;;;;;10.68;5.22;;;3.00;99.90;;;;;;4926502;29;20048;-70
2021/01/26 12:55:40;;;;;;;11.27;4.40;;;3.20;99.90;;;;;;4932656;29;20098;-71
2021/01/26 12:58:08;;;;;;;12.05;4.45;;;3.40;99.90;;;;;;4931735;29;20074;-72
2021/01/26 13:00:35;;;;;;;13.80;4.60;;;3.40;99.90;;;;;;4931675;29;20058;-73
2021/01/26 13:03:03;;;;;;;10.80;4.32;;;3.30;99.90;;;;;;4930435;29;20138;-75
2021/01/26 13:05:30;;;;;;;13.55;4.78;;;3.40;99.90;;;;;;4927697;29;20070;-71
2021/01/26 13:07:57;;;;;;;12.40;5.32;;;3.50;99.90;;;;;;4912295;29;20052;-73
2021/01/26 13:10:24;;;;;;;12.30;4.72;;;3.50;99.90;;;;;;4935850;29;20065;-71
2021/01/26 13:12:51;;;;;;;8.52;3.65;;;3.50;99.90;;;;;;4931363;29;20082;-71
2021/01/26 13:15:19;;;;;;;8.93;4.20;;;3.30;99.90;;;;;;4927520;29;20055;-71
2021/01/26 13:17:46;;;;;;;10.27;3.67;;;3.40;99.90;;;;;;4917246;29;20096;-71
2021/01/26 13:20:14;;;;;;;12.35;4.47;;;3.60;99.90;;;;;;4915095;29;20499;-71